createdAt,value
2019-03-19T00:00:20.544Z,7.07
2019-03-19T00:02:47.971Z,6.73
2019-03-19T00:05:15.383Z,6.33
2019-03-19T00:07:42.814Z,7.60
2019-03-19T00:10:10.275Z,6.70
2019-03-19T00:12:37.721Z,7.10
2019-03-19T00:15:05.123Z,6.70
2019-03-19T00:17:32.540Z,6.30
2019-03-19T00:20:00.007Z,7.37
2019-03-19T00:22:27.393Z,7.73
2019-03-19T00:24:54.823Z,7.47
2019-03-19T00:27:22.232Z,6.60
2019-03-19T00:29:49.707Z,6.50
2019-03-19T00:32:17.112Z,6.70
2019-03-19T00:34:44.563Z,7.07
2019-03-19T00:37:11.971Z,7.93
2019-03-19T00:39:39.371Z,8.23
2019-03-19T00:42:06.808Z,8.47
2019-03-19T00:44:34.216Z,8.67
2019-03-19T00:47:01.657Z,7.73
2019-03-19T00:49:29.069Z,8.37
2019-03-19T00:51:56.522Z,8.90
2019-03-19T00:54:23.906Z,8.67
2019-03-19T00:56:51.336Z,9.07
2019-03-19T00:59:18.770Z,8.80
2019-03-19T01:01:46.204Z,7.47
2019-03-19T01:04:13.645Z,7.00
2019-03-19T01:06:41.048Z,7.07
2019-03-19T01:09:08.473Z,6.10
2019-03-19T01:11:35.882Z,6.30
2019-03-19T01:14:03.319Z,5.83
2019-03-19T01:16:30.719Z,6.07
2019-03-19T01:18:58.153Z,6.50
2019-03-19T01:21:25.559Z,7.10
2019-03-19T01:23:52.995Z,7.07
2019-03-19T01:26:20.405Z,7.10
2019-03-19T01:28:47.848Z,6.87
2019-03-19T01:31:15.281Z,8.43
2019-03-19T01:33:42.736Z,7.70
2019-03-19T01:36:10.172Z,6.80
2019-03-19T01:38:37.610Z,7.33
2019-03-19T01:41:05.052Z,7.93
2019-03-19T01:43:32.462Z,7.83
2019-03-19T01:45:59.889Z,6.97
2019-03-19T01:48:27.296Z,6.87
2019-03-19T01:50:54.733Z,7.73
2019-03-19T01:53:22.149Z,7.77
2019-03-19T01:55:49.557Z,8.17
2019-03-19T01:58:16.997Z,7.40
2019-03-19T02:00:44.423Z,7.37
2019-03-19T02:03:11.830Z,6.70
2019-03-19T02:05:39.278Z,7.77
2019-03-19T02:08:06.690Z,6.53
2019-03-19T02:10:34.096Z,6.90
2019-03-19T02:13:01.536Z,7.43
2019-03-19T02:15:28.964Z,8.07
2019-03-19T02:17:56.361Z,7.90
2019-03-19T02:20:23.803Z,8.57
2019-03-19T02:22:51.225Z,7.43
2019-03-19T02:25:18.626Z,8.83
2019-03-19T02:27:46.071Z,8.97
2019-03-19T02:30:13.490Z,8.47
2019-03-19T02:32:40.954Z,9.03
2019-03-19T02:35:08.386Z,7.80
2019-03-19T02:37:35.824Z,8.20
2019-03-19T02:40:03.267Z,9.30
2019-03-19T02:42:30.669Z,9.03
2019-03-19T02:44:58.103Z,7.90
2019-03-19T02:47:25.547Z,8.47
2019-03-19T02:49:52.957Z,8.90
2019-03-19T02:52:20.388Z,9.03
2019-03-19T02:54:47.814Z,8.00
2019-03-19T02:57:15.237Z,8.37
2019-03-19T02:59:42.680Z,8.27
2019-03-19T03:02:10.102Z,8.13
2019-03-19T03:04:37.508Z,8.27
2019-03-19T03:07:04.952Z,8.70
2019-03-19T03:09:32.365Z,10.20
2019-03-19T03:11:59.823Z,11.60
2019-03-19T03:14:27.238Z,9.83
2019-03-19T03:16:54.654Z,9.23
2019-03-19T03:19:22.102Z,8.47
2019-03-19T03:21:50.709Z,8.07
2019-03-19T03:24:16.947Z,8.03
2019-03-19T03:26:48.350Z,8.17
2019-03-19T03:29:11.782Z,9.77
2019-03-19T03:31:39.209Z,10.10
2019-03-19T03:34:06.646Z,10.20
2019-03-19T03:36:34.049Z,11.23
2019-03-19T03:39:01.482Z,10.07
2019-03-19T03:41:28.892Z,10.83
2019-03-19T03:43:56.332Z,11.43
2019-03-19T03:46:23.749Z,11.27
2019-03-19T03:48:51.199Z,10.63
2019-03-19T03:51:18.618Z,11.53
2019-03-19T03:53:46.061Z,12.03
2019-03-19T03:56:13.494Z,10.30
2019-03-19T03:58:40.928Z,9.97
2019-03-19T04:01:08.354Z,11.43
2019-03-19T04:03:35.767Z,11.43
2019-03-19T04:06:03.208Z,13.60
2019-03-19T04:08:30.624Z,15.97
2019-03-19T04:10:58.060Z,13.73
2019-03-19T04:13:25.478Z,16.00
2019-03-19T04:15:52.920Z,15.00
2019-03-19T04:18:20.313Z,14.43
2019-03-19T04:20:47.757Z,13.87
2019-03-19T04:23:15.175Z,14.47
2019-03-19T04:25:42.612Z,13.80
2019-03-19T04:28:10.051Z,11.93
2019-03-19T04:30:37.489Z,12.47
2019-03-19T04:33:04.900Z,12.53
2019-03-19T04:35:32.350Z,12.17
2019-03-19T04:37:59.810Z,12.13
2019-03-19T04:40:27.223Z,11.57
2019-03-19T04:42:54.665Z,12.50
2019-03-19T04:45:22.071Z,10.83
2019-03-19T04:47:49.485Z,11.63
2019-03-19T04:50:17.256Z,12.33
2019-03-19T04:52:44.738Z,11.80
2019-03-19T04:55:12.099Z,11.63
2019-03-19T04:57:39.556Z,13.57
2019-03-19T05:00:15.595Z,13.50
2019-03-19T05:02:43.006Z,15.47
2019-03-19T05:05:10.442Z,15.90
2019-03-19T05:07:37.891Z,15.57
2019-03-19T05:10:05.294Z,14.27
2019-03-19T05:12:32.737Z,14.23
2019-03-19T05:15:00.302Z,15.50
2019-03-19T05:17:27.578Z,14.90
2019-03-19T05:19:54.991Z,14.00
2019-03-19T05:22:22.438Z,15.17
2019-03-19T05:24:49.838Z,15.83
2019-03-19T05:27:17.259Z,14.40
2019-03-19T05:29:44.701Z,17.13
2019-03-19T05:32:12.100Z,18.23
2019-03-19T05:34:39.542Z,16.07
2019-03-19T05:37:06.971Z,17.77
2019-03-19T05:39:34.382Z,17.03
2019-03-19T05:42:01.814Z,19.67
2019-03-19T05:44:29.238Z,15.93
2019-03-19T05:46:56.681Z,17.30
2019-03-19T05:49:24.127Z,18.10
2019-03-19T05:51:51.541Z,17.37
2019-03-19T05:54:19.075Z,17.47
2019-03-19T05:56:46.515Z,16.17
2019-03-19T05:59:13.957Z,18.90
2019-03-19T06:01:41.361Z,18.37
2019-03-19T06:04:08.809Z,17.03
2019-03-19T06:06:36.268Z,17.53
2019-03-19T06:09:03.707Z,16.07
2019-03-19T06:11:31.112Z,17.80
2019-03-19T06:13:58.540Z,17.60
2019-03-19T06:16:25.974Z,16.10
2019-03-19T06:18:53.422Z,14.90
2019-03-19T06:21:20.832Z,14.17
2019-03-19T06:23:48.381Z,18.70
2019-03-19T06:26:15.784Z,15.53
2019-03-19T06:28:43.210Z,18.20
2019-03-19T06:31:10.643Z,14.47
2019-03-19T06:33:38.089Z,14.33
2019-03-19T06:36:05.506Z,16.57
2019-03-19T06:38:32.947Z,19.07
2019-03-19T06:41:00.352Z,17.20
2019-03-19T06:43:27.792Z,20.17
2019-03-19T06:45:55.210Z,19.03
2019-03-19T06:48:22.646Z,19.37
2019-03-19T06:50:50.048Z,19.27
2019-03-19T06:53:17.502Z,21.20
2019-03-19T06:55:44.908Z,19.80
2019-03-19T06:58:12.359Z,18.63
2019-03-19T07:00:39.789Z,18.87
2019-03-19T07:03:07.201Z,19.30
2019-03-19T07:05:34.657Z,19.10
2019-03-19T07:08:02.066Z,18.67
2019-03-19T07:10:29.505Z,19.93
2019-03-19T07:12:56.921Z,20.37
2019-03-19T07:15:24.362Z,18.27
2019-03-19T07:17:51.806Z,20.70
2019-03-19T07:20:25.164Z,20.87
2019-03-19T07:22:52.585Z,21.60
2019-03-19T07:25:19.980Z,19.83
2019-03-19T07:27:47.421Z,21.57
2019-03-19T07:30:20.456Z,21.67
2019-03-19T07:32:47.865Z,19.93
2019-03-19T07:35:15.280Z,21.83
2019-03-19T07:37:42.710Z,20.83
2019-03-19T07:40:10.136Z,18.63
2019-03-19T07:42:37.560Z,16.73
2019-03-19T07:45:04.992Z,18.00
2019-03-19T07:47:32.387Z,17.60
2019-03-19T07:49:59.812Z,16.00
2019-03-19T07:52:27.205Z,15.13
2019-03-19T07:54:54.634Z,13.37
2019-03-19T07:57:22.038Z,12.80
2019-03-19T07:59:49.469Z,11.87
2019-03-19T08:02:16.870Z,10.43
2019-03-19T08:04:44.288Z,10.30
2019-03-19T08:07:11.691Z,10.00
2019-03-19T08:09:39.187Z,8.97
2019-03-19T08:12:06.514Z,9.33
2019-03-19T08:14:33.932Z,9.57
2019-03-19T08:17:01.342Z,9.00
2019-03-19T08:19:28.771Z,8.60
2019-03-19T08:21:56.161Z,9.40
2019-03-19T08:24:23.600Z,10.10
2019-03-19T08:26:51.012Z,8.93
2019-03-19T08:29:18.438Z,9.13
2019-03-19T08:31:45.856Z,9.10
2019-03-19T08:34:13.264Z,9.90
2019-03-19T08:36:40.697Z,9.93
2019-03-19T08:39:08.085Z,8.97
2019-03-19T08:41:35.506Z,7.63
2019-03-19T08:44:02.912Z,7.67
2019-03-19T08:46:30.346Z,8.87
2019-03-19T08:48:57.743Z,8.77
2019-03-19T08:51:25.145Z,7.57
2019-03-19T08:53:52.579Z,7.63
2019-03-19T08:56:19.989Z,8.03
2019-03-19T08:58:47.415Z,9.10
2019-03-19T09:01:14.811Z,7.63
2019-03-19T09:03:42.264Z,8.30
2019-03-19T09:06:09.637Z,7.93
2019-03-19T09:08:37.054Z,7.80
2019-03-19T09:11:04.468Z,8.10
2019-03-19T09:13:31.888Z,8.33
2019-03-19T09:15:59.286Z,7.60
2019-03-19T09:18:26.708Z,7.70
2019-03-19T09:20:54.174Z,7.83
2019-03-19T09:23:21.518Z,7.10
2019-03-19T09:25:48.937Z,7.07
2019-03-19T09:28:16.373Z,6.23
2019-03-19T09:30:43.859Z,7.50
2019-03-19T09:33:11.213Z,6.40
2019-03-19T09:35:38.633Z,7.20
2019-03-19T09:38:06.036Z,7.20
2019-03-19T09:40:33.466Z,7.37
2019-03-19T09:43:00.870Z,7.40
2019-03-19T09:45:28.301Z,7.13
2019-03-19T09:47:55.721Z,7.70
2019-03-19T09:50:23.120Z,6.70
2019-03-19T09:52:50.535Z,7.27
2019-03-19T09:55:17.970Z,7.73
2019-03-19T09:57:45.393Z,7.70
2019-03-19T10:00:21.436Z,7.90
2019-03-19T10:02:48.856Z,7.30
2019-03-19T10:05:16.299Z,8.80
2019-03-19T10:07:43.729Z,7.93
2019-03-19T10:10:16.665Z,8.27
2019-03-19T10:12:44.094Z,8.33
2019-03-19T10:15:11.514Z,6.63
2019-03-19T10:17:38.956Z,8.17
2019-03-19T10:20:17.654Z,7.40
2019-03-19T10:22:42.577Z,7.27
2019-03-19T10:25:12.486Z,7.10
2019-03-19T10:27:39.896Z,5.53
2019-03-19T10:30:16.157Z,6.03
2019-03-19T10:32:43.577Z,6.50
2019-03-19T10:35:10.979Z,5.83
2019-03-19T10:37:38.399Z,5.70
2019-03-19T10:40:05.860Z,5.70
2019-03-19T10:42:33.251Z,16.70
2019-03-19T10:45:00.660Z,6.50
2019-03-19T10:47:28.116Z,4.73
2019-03-19T10:49:55.508Z,5.20
2019-03-19T10:52:22.922Z,4.60
2019-03-19T10:54:50.364Z,5.10
2019-03-19T10:57:17.796Z,4.13
2019-03-19T10:59:49.023Z,4.00
2019-03-19T11:02:12.680Z,4.63
2019-03-19T11:04:40.067Z,3.53
2019-03-19T11:07:07.479Z,3.80
2019-03-19T11:09:34.915Z,3.83
2019-03-19T11:12:02.363Z,4.70
2019-03-19T11:14:29.855Z,3.60
2019-03-19T11:16:57.272Z,3.50
2019-03-19T11:19:24.678Z,2.90
2019-03-19T11:21:52.129Z,3.03
2019-03-19T11:24:19.546Z,4.07
2019-03-19T11:26:47.041Z,4.10
2019-03-19T11:29:14.392Z,4.50
2019-03-19T11:31:41.822Z,4.37
2019-03-19T11:34:09.244Z,4.73
2019-03-19T11:36:36.694Z,4.50
2019-03-19T11:39:04.129Z,4.20
2019-03-19T11:41:31.567Z,4.63
2019-03-19T11:43:58.979Z,4.00
2019-03-19T11:46:26.391Z,4.53
2019-03-19T11:48:53.808Z,4.13
2019-03-19T11:51:21.249Z,4.43
2019-03-19T11:53:48.652Z,4.77
2019-03-19T11:56:16.055Z,4.23
2019-03-19T11:58:43.488Z,3.93
2019-03-19T12:01:10.926Z,3.90
2019-03-19T12:03:38.321Z,4.63
2019-03-19T12:06:05.716Z,3.90
2019-03-19T12:08:33.178Z,4.33
2019-03-19T12:11:00.642Z,4.33
2019-03-19T12:13:28.068Z,3.70
2019-03-19T12:15:55.514Z,4.40
2019-03-19T12:18:22.939Z,3.67
2019-03-19T12:20:50.335Z,3.93
2019-03-19T12:23:17.751Z,3.57
2019-03-19T12:25:45.157Z,4.07
2019-03-19T12:28:12.585Z,3.90
2019-03-19T12:30:39.999Z,3.43
2019-03-19T12:33:07.397Z,3.00
2019-03-19T12:35:34.821Z,3.37
2019-03-19T12:38:02.216Z,3.13
2019-03-19T12:40:36.908Z,3.60
2019-03-19T12:42:57.048Z,3.20
2019-03-19T12:45:24.442Z,3.80
2019-03-19T12:47:51.870Z,3.50
2019-03-19T12:50:19.312Z,3.43
2019-03-19T12:52:46.711Z,3.50
2019-03-19T12:55:14.134Z,3.30
2019-03-19T12:57:41.556Z,3.97
2019-03-19T13:00:08.955Z,3.47
2019-03-19T13:02:36.399Z,2.80
2019-03-19T13:05:03.929Z,3.53
2019-03-19T13:07:31.361Z,3.87
2019-03-19T13:09:58.849Z,3.57
2019-03-19T13:12:26.298Z,3.47
2019-03-19T13:14:53.720Z,3.90
2019-03-19T13:17:21.260Z,2.80
2019-03-19T13:19:48.685Z,3.63
2019-03-19T13:22:16.135Z,3.10
2019-03-19T13:24:43.560Z,3.00
2019-03-19T13:27:11.025Z,5.10
2019-03-19T13:29:38.433Z,3.37
2019-03-19T13:32:05.847Z,3.77
2019-03-19T13:34:33.272Z,3.30
2019-03-19T13:37:00.780Z,3.17
2019-03-19T13:39:28.174Z,3.13
2019-03-19T13:41:55.606Z,4.00
2019-03-19T13:44:23.080Z,4.20
2019-03-19T13:46:50.528Z,3.87
2019-03-19T13:49:17.917Z,3.27
2019-03-19T13:51:45.342Z,3.30
2019-03-19T13:54:12.736Z,3.80
2019-03-19T13:56:40.142Z,3.20
2019-03-19T13:59:07.560Z,3.70
2019-03-19T14:01:34.986Z,3.47
2019-03-19T14:04:02.397Z,3.47
2019-03-19T14:06:29.808Z,3.20
2019-03-19T14:08:57.229Z,3.77
2019-03-19T14:11:24.646Z,4.17
2019-03-19T14:13:52.076Z,4.53
2019-03-19T14:16:19.559Z,3.20
2019-03-19T14:18:46.970Z,4.20
2019-03-19T14:21:14.384Z,5.03
2019-03-19T14:23:41.911Z,3.00
2019-03-19T14:26:09.305Z,3.10
2019-03-19T14:28:36.731Z,3.00
2019-03-19T14:31:08.999Z,3.27
2019-03-19T14:33:31.719Z,3.37
2019-03-19T14:35:59.103Z,3.13
2019-03-19T14:38:26.637Z,3.43
2019-03-19T14:40:54.078Z,3.53
2019-03-19T14:43:21.507Z,3.10
2019-03-19T14:45:49.000Z,3.17
2019-03-19T14:48:16.416Z,3.07
2019-03-19T14:50:43.819Z,3.90
2019-03-19T14:53:11.264Z,3.50
2019-03-19T14:55:38.661Z,3.57
2019-03-19T14:58:06.056Z,3.70
2019-03-19T15:00:35.399Z,3.80
2019-03-19T15:03:00.908Z,3.50
2019-03-19T15:05:28.325Z,3.50
2019-03-19T15:07:55.732Z,3.83
2019-03-19T15:10:24.147Z,3.23
2019-03-19T15:12:51.547Z,4.17
2019-03-19T15:15:21.853Z,3.93
2019-03-19T15:17:49.293Z,4.03
2019-03-19T15:20:16.715Z,4.30
2019-03-19T15:22:44.131Z,4.50
2019-03-19T15:25:11.570Z,4.33
2019-03-19T15:27:38.979Z,3.70
2019-03-19T15:30:15.374Z,5.00
2019-03-19T15:32:42.809Z,4.97
2019-03-19T15:35:10.248Z,4.63
2019-03-19T15:37:37.684Z,4.07
2019-03-19T15:40:05.090Z,4.43
2019-03-19T15:42:32.515Z,4.93
2019-03-19T15:44:59.917Z,4.87
2019-03-19T15:47:27.360Z,5.20
2019-03-19T15:49:54.765Z,5.67
2019-03-19T15:52:22.161Z,5.50
2019-03-19T15:54:49.606Z,4.70
2019-03-19T15:57:17.291Z,4.63
2019-03-19T15:59:44.716Z,4.97
2019-03-19T16:02:12.135Z,4.67
2019-03-19T16:04:39.533Z,4.53
2019-03-19T16:07:06.950Z,4.47
2019-03-19T16:09:34.366Z,4.63
2019-03-19T16:12:01.805Z,5.30
2019-03-19T16:14:29.226Z,4.37
2019-03-19T16:16:56.663Z,4.37
2019-03-19T16:19:24.095Z,4.13
2019-03-19T16:21:51.498Z,4.30
2019-03-19T16:24:18.949Z,4.50
2019-03-19T16:26:46.406Z,4.20
2019-03-19T16:29:13.807Z,4.57
2019-03-19T16:31:50.593Z,3.90
2019-03-19T16:34:08.655Z,5.23
2019-03-19T16:36:36.073Z,5.10
2019-03-19T16:39:03.487Z,6.03
2019-03-19T16:41:30.928Z,5.77
2019-03-19T16:43:58.330Z,5.47
2019-03-19T16:46:25.747Z,5.30
2019-03-19T16:48:53.143Z,4.63
2019-03-19T16:51:20.579Z,4.13
2019-03-19T16:53:47.999Z,4.03
2019-03-19T16:56:15.405Z,4.10
2019-03-19T16:58:42.845Z,4.80
2019-03-19T17:01:10.263Z,4.20
2019-03-19T17:03:37.674Z,4.13
2019-03-19T17:06:05.182Z,4.40
2019-03-19T17:08:32.596Z,4.30
2019-03-19T17:11:00.039Z,4.30
2019-03-19T17:13:27.450Z,4.60
2019-03-19T17:15:54.852Z,3.97
2019-03-19T17:18:22.274Z,4.57
2019-03-19T17:20:49.702Z,4.13
2019-03-19T17:23:17.111Z,4.33
2019-03-19T17:25:44.532Z,4.20
2019-03-19T17:28:21.873Z,3.90
2019-03-19T17:30:39.366Z,4.77
2019-03-19T17:33:06.789Z,4.30
2019-03-19T17:35:34.205Z,5.23
2019-03-19T17:38:01.662Z,6.53
2019-03-19T17:40:29.055Z,6.53
2019-03-19T17:42:56.505Z,7.80
2019-03-19T17:45:23.932Z,7.73
2019-03-19T17:47:51.426Z,7.13
2019-03-19T17:50:30.660Z,7.10
2019-03-19T17:52:58.080Z,6.43
2019-03-19T17:55:25.486Z,6.50
2019-03-19T17:57:52.919Z,7.73
2019-03-19T18:00:29.523Z,5.83
2019-03-19T18:02:57.059Z,4.87
2019-03-19T18:05:24.488Z,4.53
2019-03-19T18:07:51.922Z,5.53
2019-03-19T18:10:19.353Z,5.10
2019-03-19T18:12:46.775Z,4.53
2019-03-19T18:15:16.944Z,4.93
2019-03-19T18:17:44.371Z,4.73
2019-03-19T18:20:11.804Z,4.53
2019-03-19T18:22:39.240Z,4.83
2019-03-19T18:25:06.682Z,5.77
2019-03-19T18:27:34.086Z,5.93
2019-03-19T18:30:01.571Z,6.20
2019-03-19T18:32:35.004Z,6.30
2019-03-19T18:34:56.427Z,5.77
2019-03-19T18:37:23.878Z,6.87
2019-03-19T18:39:51.364Z,9.37
2019-03-19T18:42:18.772Z,13.23
2019-03-19T18:44:46.170Z,11.87
2019-03-19T18:47:13.612Z,9.70
2019-03-19T18:49:41.035Z,8.70
2019-03-19T18:52:08.510Z,7.27
2019-03-19T18:54:35.908Z,6.30
2019-03-19T18:57:03.352Z,5.60
2019-03-19T18:59:30.765Z,5.70
2019-03-19T19:01:58.196Z,5.00
2019-03-19T19:04:25.621Z,4.90
2019-03-19T19:06:53.086Z,6.20
2019-03-19T19:09:20.477Z,5.50
2019-03-19T19:11:47.889Z,5.37
2019-03-19T19:14:15.322Z,6.00
2019-03-19T19:16:42.747Z,6.57
2019-03-19T19:19:10.175Z,5.67
2019-03-19T19:21:37.616Z,6.20
2019-03-19T19:24:05.029Z,6.20
2019-03-19T19:26:32.469Z,6.40
2019-03-19T19:28:59.882Z,5.90
2019-03-19T19:31:27.319Z,6.07
2019-03-19T19:33:54.746Z,7.40
2019-03-19T19:36:22.163Z,7.93
2019-03-19T19:38:49.596Z,9.30
2019-03-19T19:41:17.000Z,9.27
2019-03-19T19:43:44.428Z,10.10
2019-03-19T19:46:11.845Z,8.43
2019-03-19T19:48:39.276Z,8.40
2019-03-19T19:51:06.709Z,6.97
2019-03-19T19:53:34.149Z,7.43
2019-03-19T19:56:01.555Z,6.40
2019-03-19T19:58:29.014Z,6.90
2019-03-19T20:00:56.436Z,8.10
2019-03-19T20:03:24.099Z,8.00
2019-03-19T20:05:51.544Z,8.37
2019-03-19T20:08:18.970Z,9.00
2019-03-19T20:10:46.507Z,8.57
2019-03-19T20:13:13.928Z,9.43
2019-03-19T20:15:41.357Z,9.30
2019-03-19T20:18:08.842Z,8.83
2019-03-19T20:20:36.317Z,9.10
2019-03-19T20:23:03.722Z,8.60
2019-03-19T20:25:31.157Z,8.73
2019-03-19T20:27:58.552Z,7.53
2019-03-19T20:30:25.961Z,7.57
2019-03-19T20:32:53.398Z,7.77
2019-03-19T20:35:20.833Z,7.83
2019-03-19T20:37:48.411Z,8.43
2019-03-19T20:40:15.823Z,8.57
2019-03-19T20:42:43.314Z,7.70
2019-03-19T20:45:10.714Z,8.50
2019-03-19T20:47:38.144Z,8.87
2019-03-19T20:50:11.376Z,9.17
2019-03-19T20:52:38.823Z,8.73
2019-03-19T20:55:06.252Z,9.90
2019-03-19T20:57:33.687Z,9.83
2019-03-19T21:00:01.191Z,9.00
2019-03-19T21:02:28.573Z,9.27
2019-03-19T21:04:56.007Z,9.33
2019-03-19T21:07:23.419Z,9.90
2019-03-19T21:09:50.884Z,9.97
2019-03-19T21:12:18.323Z,9.07
2019-03-19T21:14:45.730Z,10.20
2019-03-19T21:17:13.135Z,9.20
2019-03-19T21:19:40.573Z,9.00
2019-03-19T21:22:07.979Z,9.67
2019-03-19T21:24:35.458Z,10.73
2019-03-19T21:27:02.913Z,9.57
2019-03-19T21:29:30.303Z,10.97
2019-03-19T21:31:57.707Z,10.50
2019-03-19T21:34:25.170Z,10.20
2019-03-19T21:36:52.575Z,10.07
2019-03-19T21:39:20.010Z,10.33
2019-03-19T21:41:47.412Z,10.60
2019-03-19T21:44:14.818Z,9.53
2019-03-19T21:46:42.252Z,9.30
2019-03-19T21:49:09.707Z,10.00
2019-03-19T21:51:37.180Z,9.67
2019-03-19T21:54:04.566Z,10.60
2019-03-19T21:56:31.976Z,9.97
2019-03-19T21:58:59.397Z,9.80
2019-03-19T22:01:26.881Z,9.80
2019-03-19T22:04:02.726Z,10.03
2019-03-19T22:06:21.840Z,9.47
2019-03-19T22:08:49.175Z,9.97
2019-03-19T22:11:16.564Z,9.73
2019-03-19T22:13:43.979Z,10.80
2019-03-19T22:16:11.438Z,11.20
2019-03-19T22:18:38.854Z,10.40
2019-03-19T22:21:06.260Z,11.60
2019-03-19T22:23:33.748Z,12.50
2019-03-19T22:26:01.194Z,11.73
2019-03-19T22:28:28.648Z,11.47
2019-03-19T22:30:56.064Z,11.10
2019-03-19T22:33:23.505Z,11.13
2019-03-19T22:35:50.946Z,11.30
2019-03-19T22:38:18.355Z,10.97
2019-03-19T22:40:45.823Z,11.77
2019-03-19T22:43:13.271Z,11.97
2019-03-19T22:45:40.709Z,11.03
2019-03-19T22:48:08.117Z,11.47
2019-03-19T22:50:35.554Z,12.47
2019-03-19T22:53:03.002Z,13.77
2019-03-19T22:55:30.458Z,12.10
2019-03-19T22:58:00.676Z,12.33
2019-03-19T23:00:34.063Z,13.13
2019-03-19T23:03:01.607Z,13.87
2019-03-19T23:05:31.464Z,13.83
2019-03-19T23:07:58.907Z,14.63
2019-03-19T23:10:26.320Z,15.03
2019-03-19T23:12:53.777Z,14.00
2019-03-19T23:15:21.195Z,14.23
2019-03-19T23:17:48.629Z,13.17
2019-03-19T23:20:16.043Z,15.07
2019-03-19T23:22:43.456Z,14.43
2019-03-19T23:25:10.883Z,16.50
2019-03-19T23:27:38.317Z,15.23
2019-03-19T23:30:14.402Z,15.13
2019-03-19T23:32:41.846Z,15.57
2019-03-19T23:35:09.324Z,15.63
2019-03-19T23:37:36.820Z,15.30
2019-03-19T23:40:04.258Z,15.07
2019-03-19T23:42:31.673Z,14.13
2019-03-19T23:44:59.113Z,14.07
2019-03-19T23:47:29.422Z,14.27
2019-03-19T23:49:56.859Z,14.63
2019-03-19T23:52:27.209Z,15.73
2019-03-19T23:54:54.622Z,14.63
2019-03-19T23:57:22.056Z,14.57
2019-03-19T23:59:52.009Z,15.63
